Time;durP1;ratioP1;P1;durP2;ratioP2;P2;SDS_P1;SDS_P2;PMS_P1;PMS_P2;Temp;Humidity;BMP_temperature;BMP_pressure;BME280_temperature;BME280_humidity;BME280_pressure;Samples;Min_cycle;Max_cycle;Signal;HPM_P1;HPM_P2
2022/10/21 00:00:59;;;;;;;14.60;9.77;;;;;;;11.62;82.98;96238.06;5043337;28;20052;-76
2022/10/21 00:03:27;;;;;;;14.82;11.20;;;;;;;11.55;83.19;96243.25;5060393;28;20044;-77
2022/10/21 00:05:54;;;;;;;15.15;11.07;;;;;;;11.50;82.98;96232.53;5060685;28;20049;-77
2022/10/21 00:08:21;;;;;;;15.15;11.43;;;;;;;11.57;83.00;96242.91;5044042;28;20051;-78
2022/10/21 00:10:51;;;;;;;18.08;11.95;;;;;;;11.46;83.03;96258.84;5043261;28;20053;-77
2022/10/21 00:13:18;;;;;;;16.50;10.70;;;;;;;11.54;83.05;96249.84;5060641;28;20045;-77
2022/10/21 00:15:44;;;;;;;18.13;11.75;;;;;;;11.52;83.20;96252.06;5060630;28;20060;-75
2022/10/21 00:18:11;;;;;;;16.50;12.07;;;;;;;11.42;83.59;96246.97;5060631;28;20052;-77
2022/10/21 00:20:41;;;;;;;18.60;12.00;;;;;;;11.42;83.83;96238.78;5060432;28;20045;-77
2022/10/21 00:23:07;;;;;;;17.80;11.48;;;;;;;11.45;83.78;96225.31;5061710;28;20095;-77
2022/10/21 00:25:34;;;;;;;19.33;11.85;;;;;;;11.46;84.15;96212.47;5061619;28;20057;-78
2022/10/21 00:28:00;;;;;;;17.42;11.75;;;;;;;11.45;84.20;96194.53;5060673;28;20045;-76
2022/10/21 00:30:27;;;;;;;17.17;11.57;;;;;;;11.41;84.25;96185.41;5060888;28;20041;-78
2022/10/21 00:32:53;;;;;;;17.58;11.80;;;;;;;11.39;84.74;96193.13;5061121;28;20056;-77
2022/10/21 00:35:20;;;;;;;19.13;11.82;;;;;;;11.32;84.82;96198.25;5059865;28;20053;-78
2022/10/21 00:37:48;;;;;;;14.50;10.95;;;;;;;11.43;84.65;96221.28;5061369;28;20083;-78
2022/10/21 00:40:14;;;;;;;19.45;12.15;;;;;;;11.40;85.26;96224.69;5059518;28;20044;-78
2022/10/21 00:42:41;;;;;;;18.98;11.40;;;;;;;11.25;85.72;96217.84;5059829;28;20049;-78
2022/10/21 00:45:21;;;;;;;18.27;10.68;;;;;;;11.32;85.77;96209.16;5059389;28;20075;-77
2022/10/21 00:47:51;;;;;;;13.80;10.48;;;;;;;11.39;85.57;96204.81;5060978;28;20056;-78
2022/10/21 00:50:26;;;;;;;15.93;11.75;;;;;;;11.48;85.85;96199.31;5060119;28;20045;-77
2022/10/21 00:52:55;;;;;;;17.60;12.20;;;;;;;11.51;85.78;96204.13;5060598;28;20049;-76
2022/10/21 00:55:24;;;;;;;18.10;11.85;;;;;;;11.55;85.57;96209.72;5057481;28;20045;-77
2022/10/21 00:57:52;;;;;;;17.02;11.45;;;;;;;11.58;85.83;96195.41;5060464;28;20083;-77
2022/10/21 01:00:19;;;;;;;18.70;10.65;;;;;;;11.66;85.17;96198.13;5060196;28;20055;-78
2022/10/21 01:02:46;;;;;;;16.08;11.13;;;;;;;11.67;85.06;96205.16;5061600;28;20435;-78
2022/10/21 01:05:13;;;;;;;16.85;11.82;;;;;;;11.63;84.67;96212.41;5061513;28;20045;-78
2022/10/21 01:07:40;;;;;;;16.38;11.43;;;;;;;11.63;84.86;96208.88;5061995;28;20045;-76
2022/10/21 01:10:09;;;;;;;14.82;10.70;;;;;;;11.64;84.89;96208.56;5061297;28;20414;-77
2022/10/21 01:12:47;;;;;;;14.80;10.38;;;;;;;11.68;85.03;96206.75;5039745;28;20041;-77
2022/10/21 01:15:19;;;;;;;15.20;11.43;;;;;;;11.68;85.33;96212.22;5036739;28;20042;-79
2022/10/21 01:17:53;;;;;;;17.10;12.43;;;;;;;11.70;85.60;96204.53;5038654;28;20500;-78
2022/10/21 01:20:51;;;;;;;16.83;11.95;;;;;;;11.56;85.87;96190.31;5037213;28;20045;-77
2022/10/21 01:23:52;;;;;;;15.65;11.57;;;;;;;11.61;85.66;96192.03;5038569;28;20049;-78
2022/10/21 01:26:45;;;;;;;17.50;11.52;;;;;;;11.70;85.53;96209.97;5038869;28;20052;-77
2022/10/21 01:29:42;;;;;;;14.80;8.90;;;;;;;11.72;84.58;96194.06;5023451;28;20096;-77
2022/10/21 01:32:18;;;;;;;16.65;11.52;;;;;;;11.72;84.77;96196.78;5041207;28;20045;-77
2022/10/21 01:34:54;;;;;;;20.42;11.68;;;;;;;11.70;84.97;96193.59;5041098;28;20055;-77
2022/10/21 01:37:25;;;;;;;14.23;10.43;;;;;;;11.75;85.01;96198.88;5041095;28;20042;-76
2022/10/21 01:39:56;;;;;;;17.38;12.05;;;;;;;11.79;85.04;96201.72;5042185;28;20046;-76
2022/10/21 01:42:32;;;;;;;18.05;12.25;;;;;;;11.69;85.16;96196.66;5042328;28;20542;-77
2022/10/21 01:45:05;;;;;;;18.20;12.50;;;;;;;11.68;85.25;96195.84;5060010;28;20048;-74
2022/10/21 01:47:36;;;;;;;17.77;12.35;;;;;;;11.73;85.33;96176.56;5060729;28;20047;-76
2022/10/21 01:50:07;;;;;;;17.10;12.07;;;;;;;11.74;85.12;96178.19;5061043;28;20061;-77
2022/10/21 01:52:34;;;;;;;16.73;12.70;;;;;;;11.71;85.45;96167.94;5043156;28;20585;-76
2022/10/21 01:55:05;;;;;;;16.90;12.35;;;;;;;11.72;85.44;96158.59;5059925;28;20049;-76
2022/10/21 01:57:37;;;;;;;19.65;13.82;;;;;;;11.66;85.52;96159.94;5060956;28;20104;-77
2022/10/21 02:00:05;;;;;;;20.83;13.73;;;;;;;11.62;85.68;96158.97;5042694;28;20407;-76
2022/10/21 02:02:38;;;;;;;23.73;13.80;;;;;;;11.62;85.64;96153.53;5063134;28;20067;-76
2022/10/21 02:05:10;;;;;;;18.98;12.10;;;;;;;11.67;85.41;96156.06;5043746;28;20053;-76
2022/10/21 02:07:37;;;;;;;17.20;12.10;;;;;;;11.69;85.55;96145.66;5062113;28;20045;-75
2022/10/21 02:10:04;;;;;;;15.98;11.88;;;;;;;11.73;85.52;96146.56;5061313;28;20056;-76
2022/10/21 02:12:33;;;;;;;18.80;13.00;;;;;;;11.68;85.65;96152.22;5043612;28;20041;-75
2022/10/21 02:15:02;;;;;;;17.42;13.35;;;;;;;11.68;85.71;96146.75;5060090;28;20060;-77
2022/10/21 02:17:29;;;;;;;19.17;13.02;;;;;;;11.68;85.47;96146.75;5061628;28;20040;-76
2022/10/21 02:20:00;;;;;;;21.20;13.52;;;;;;;11.67;85.61;96145.16;5062801;28;20063;-75
2022/10/21 02:22:28;;;;;;;23.85;13.85;;;;;;;11.63;85.95;96138.75;5062493;28;20043;-76
2022/10/21 02:24:59;;;;;;;19.92;14.57;;;;;;;11.68;85.69;96137.78;5063382;28;20111;-76
2022/10/21 02:27:26;;;;;;;19.23;13.30;;;;;;;11.68;85.87;96141.28;5063151;28;20041;-76
2022/10/21 02:29:55;;;;;;;17.30;13.23;;;;;;;11.62;86.18;96142.63;5063152;28;20041;-76
2022/10/21 02:32:32;;;;;;;19.42;13.13;;;;;;;11.63;86.21;96140.69;5062614;28;20059;-76
2022/10/21 02:35:13;;;;;;;19.83;13.95;;;;;;;11.61;86.41;96141.03;5062586;28;20495;-77
2022/10/21 02:37:45;;;;;;;19.10;12.85;;;;;;;11.60;86.53;96128.53;5061496;28;20041;-77
2022/10/21 02:40:17;;;;;;;15.63;12.43;;;;;;;11.69;86.45;96133.91;5045090;28;20049;-77
2022/10/21 02:42:49;;;;;;;23.15;14.10;;;;;;;11.67;86.52;96128.00;5063890;28;20102;-76
2022/10/21 02:45:17;;;;;;;20.30;12.52;;;;;;;11.68;86.61;96135.84;5043427;28;20045;-75
2022/10/21 02:47:47;;;;;;;15.85;12.57;;;;;;;11.71;86.79;96137.91;5042014;28;20045;-76
2022/10/21 02:50:15;;;;;;;19.60;12.90;;;;;;;11.68;86.80;96135.84;5041998;28;20041;-76
2022/10/21 02:52:41;;;;;;;18.73;12.10;;;;;;;11.74;86.84;96140.00;5043704;28;20048;-76
2022/10/21 02:55:09;;;;;;;18.77;13.57;;;;;;;11.70;86.69;96121.88;5042025;28;20045;-77
2022/10/21 02:57:35;;;;;;;20.00;13.60;;;;;;;11.70;86.76;96117.22;5043476;28;20056;-75
2022/10/21 03:00:02;;;;;;;20.88;13.50;;;;;;;11.68;86.78;96114.03;5041852;28;20049;-77
2022/10/21 03:02:28;;;;;;;18.73;13.02;;;;;;;11.72;86.44;96119.63;5041490;28;20132;-78
2022/10/21 03:04:55;;;;;;;19.65;14.25;;;;;;;11.67;86.53;96123.34;5042507;28;20045;-76
2022/10/21 03:07:23;;;;;;;18.67;12.82;;;;;;;11.63;86.79;96114.22;5041236;28;21021;-76
2022/10/21 03:09:49;;;;;;;18.65;12.77;;;;;;;11.60;86.86;96101.25;5042335;28;20084;-77
2022/10/21 03:12:16;;;;;;;17.48;13.40;;;;;;;11.61;86.67;96096.59;5023324;28;20053;-77
2022/10/21 03:14:42;;;;;;;19.95;13.50;;;;;;;11.52;87.19;96091.19;5060047;28;20059;-77
2022/10/21 03:17:09;;;;;;;19.63;13.55;;;;;;;11.48;87.29;96088.34;5061504;28;20396;-77
2022/10/21 03:19:35;;;;;;;19.30;14.07;;;;;;;11.47;87.64;96094.09;5061118;28;20048;-77
2022/10/21 03:22:02;;;;;;;18.00;13.05;;;;;;;11.55;87.44;96082.34;5060215;28;20049;-78
2022/10/21 03:24:30;;;;;;;17.77;12.77;;;;;;;11.57;87.13;96085.53;5061106;28;20059;-77
2022/10/21 03:26:56;;;;;;;19.63;14.73;;;;;;;11.52;87.31;96093.13;5056561;28;20041;-78
2022/10/21 03:29:23;;;;;;;19.10;13.27;;;;;;;11.52;87.72;96077.56;5052765;28;20045;-78
2022/10/21 03:31:49;;;;;;;20.10;14.05;;;;;;;11.48;87.59;96080.16;5053347;28;20048;-78
2022/10/21 03:34:16;;;;;;;20.80;13.70;;;;;;;11.48;87.93;96076.59;5054064;28;20406;-76
2022/10/21 03:36:44;;;;;;;17.17;12.38;;;;;;;11.52;87.48;96080.28;5055344;28;20211;-76
2022/10/21 03:39:11;;;;;;;21.05;14.10;;;;;;;11.47;87.98;96075.00;5054409;28;20047;-76
2022/10/21 03:41:39;;;;;;;22.67;13.63;;;;;;;11.43;87.98;96079.53;5055579;28;20044;-79
2022/10/21 03:44:06;;;;;;;19.42;12.90;;;;;;;11.46;88.03;96076.94;5055335;28;20054;-78
2022/10/21 03:46:33;;;;;;;20.35;14.48;;;;;;;11.46;88.12;96078.88;5056518;28;20183;-77
2022/10/21 03:48:59;;;;;;;19.83;13.50;;;;;;;11.48;87.99;96077.44;5056311;28;20045;-78
2022/10/21 03:51:26;;;;;;;17.02;12.30;;;;;;;11.56;88.08;96078.50;5056701;28;20041;-77
2022/10/21 03:53:52;;;;;;;18.63;14.32;;;;;;;11.54;88.13;96080.75;5057065;28;20041;-78
2022/10/21 03:56:19;;;;;;;19.35;12.65;;;;;;;11.59;88.33;96083.28;5056258;28;20045;-77
2022/10/21 03:58:47;;;;;;;18.77;13.05;;;;;;;11.60;87.93;96073.97;5056991;28;20041;-78
2022/10/21 04:01:14;;;;;;;23.85;15.23;;;;;;;11.47;88.24;96072.28;5054752;28;20053;-79
2022/10/21 04:03:41;;;;;;;18.25;14.05;;;;;;;11.45;88.24;96066.38;5055395;28;20037;-77
2022/10/21 04:06:08;;;;;;;20.42;13.75;;;;;;;11.39;88.25;96060.31;5055796;28;20049;-78
2022/10/21 04:08:34;;;;;;;23.25;14.18;;;;;;;11.39;88.24;96063.03;5056774;28;20052;-77
2022/10/21 04:11:01;;;;;;;19.80;13.85;;;;;;;11.43;88.18;96064.00;5057348;28;20064;-78
2022/10/21 04:13:27;;;;;;;17.50;12.85;;;;;;;11.48;88.05;96062.97;5056389;28;20523;-78
2022/10/21 04:15:59;;;;;;;17.98;13.30;;;;;;;11.44;88.20;96059.34;5056636;28;20058;-78
2022/10/21 04:18:25;;;;;;;16.58;12.63;;;;;;;11.50;87.53;96056.06;5056315;28;20045;-78
2022/10/21 04:20:52;;;;;;;21.80;14.73;;;;;;;11.44;87.87;96042.97;5056009;28;20047;-77
2022/10/21 04:23:19;;;;;;;16.98;12.85;;;;;;;11.42;88.01;96042.50;5056748;28;20041;-79
2022/10/21 04:25:45;;;;;;;18.42;13.20;;;;;;;11.41;87.96;96038.16;5056800;28;20048;-78
2022/10/21 04:28:12;;;;;;;18.48;12.73;;;;;;;11.46;88.11;96040.69;5056605;28;20053;-77
2022/10/21 04:30:39;;;;;;;19.77;13.38;;;;;;;11.46;88.07;96040.69;5059786;28;20063;-77
2022/10/21 04:33:07;;;;;;;18.70;13.02;;;;;;;11.43;88.31;96033.19;5059148;28;20419;-77
2022/10/21 04:35:33;;;;;;;19.23;13.10;;;;;;;11.45;88.40;96022.75;5059126;28;20055;-77
2022/10/21 04:38:00;;;;;;;17.77;12.63;;;;;;;11.49;88.11;96020.97;5059264;28;20051;-76
2022/10/21 04:40:27;;;;;;;18.50;13.30;;;;;;;11.52;87.86;96017.56;5040488;28;20053;-77
2022/10/21 04:42:53;;;;;;;19.63;12.80;;;;;;;11.53;88.05;96008.25;5058494;28;20053;-78
2022/10/21 04:45:20;;;;;;;23.05;14.23;;;;;;;11.42;88.31;96002.38;5041186;28;20525;-78
2022/10/21 04:47:47;;;;;;;19.63;13.93;;;;;;;11.41;88.38;95998.06;5059930;28;20048;-77
2022/10/21 04:50:14;;;;;;;19.63;14.38;;;;;;;11.38;88.37;95985.13;5059296;28;20044;-78
2022/10/21 04:52:42;;;;;;;18.20;14.07;;;;;;;11.32;88.21;95978.25;5059409;28;20083;-77
2022/10/21 04:55:09;;;;;;;20.17;14.43;;;;;;;11.33;88.38;95976.31;5058642;28;20499;-78
2022/10/21 04:57:43;;;;;;;21.67;13.55;;;;;;;11.30;88.22;95980.50;5061630;28;20048;-78
2022/10/21 05:00:11;;;;;;;18.92;13.70;;;;;;;11.26;88.35;95978.78;5047356;28;20044;-79
2022/10/21 05:02:39;;;;;;;19.85;13.88;;;;;;;11.19;88.50;95961.03;5056622;28;20052;-77
2022/10/21 05:05:06;;;;;;;21.15;14.23;;;;;;;11.18;88.39;95951.25;5056516;28;20064;-77
2022/10/21 05:07:37;;;;;;;21.08;14.23;;;;;;;11.15;88.75;95949.19;5058131;28;20041;-77
2022/10/21 05:10:04;;;;;;;21.50;14.55;;;;;;;11.17;88.48;95946.13;5057160;28;20041;-78
2022/10/21 05:12:31;;;;;;;20.15;13.57;;;;;;;11.13;88.22;95948.72;5058179;28;20049;-78
2022/10/21 05:14:59;;;;;;;22.45;14.20;;;;;;;11.16;88.59;95950.78;5057894;28;20060;-78
2022/10/21 05:17:26;;;;;;;22.05;14.48;;;;;;;11.15;88.57;95946.47;5058521;28;20512;-77
2022/10/21 05:19:52;;;;;;;26.35;15.02;;;;;;;11.04;88.62;95948.00;5057810;28;20430;-79
2022/10/21 05:22:19;;;;;;;21.45;13.18;;;;;;;11.00;88.84;95952.50;5054870;28;20499;-77
2022/10/21 05:24:47;;;;;;;19.65;13.90;;;;;;;11.02;88.69;95944.00;5055685;28;20049;-78
2022/10/21 05:27:13;;;;;;;21.77;13.95;;;;;;;10.98;89.01;95938.41;5055789;28;20083;-78
2022/10/21 05:29:40;;;;;;;19.45;13.23;;;;;;;11.02;88.93;95944.00;5056575;28;20053;-77
2022/10/21 05:32:06;;;;;;;24.30;14.52;;;;;;;11.06;88.72;95939.47;5056329;28;20076;-79
2022/10/21 05:34:33;;;;;;;19.73;13.75;;;;;;;11.02;88.54;95939.34;5056578;28;20470;-76
2022/10/21 05:37:00;;;;;;;22.35;14.18;;;;;;;10.97;88.72;95940.34;5051789;28;20543;-74
2022/10/21 05:39:26;;;;;;;22.38;13.85;;;;;;;11.01;88.97;95939.66;5051918;28;20044;-74
2022/10/21 05:41:54;;;;;;;24.65;15.18;;;;;;;10.90;89.04;95937.31;5052237;28;20131;-75
2022/10/21 05:44:21;;;;;;;19.40;13.38;;;;;;;10.93;88.85;95944.06;5051224;28;20049;-75
2022/10/21 05:46:48;;;;;;;23.98;14.02;;;;;;;10.97;88.51;95947.72;5053278;28;20049;-74
2022/10/21 05:49:14;;;;;;;21.48;15.15;;;;;;;10.93;88.59;95952.22;5053306;28;20071;-74
2022/10/21 05:51:43;;;;;;;24.27;14.40;;;;;;;10.98;89.08;95961.00;5054205;28;20492;-74
2022/10/21 05:54:10;;;;;;;22.38;14.52;;;;;;;11.01;88.48;95958.75;5055283;28;20045;-76
2022/10/21 05:56:36;;;;;;;19.30;13.55;;;;;;;11.00;88.75;95957.16;5056390;28;20041;-76
2022/10/21 05:59:04;;;;;;;24.42;15.75;;;;;;;10.87;89.03;95962.53;5055937;28;20051;-77
2022/10/21 06:01:31;;;;;;;19.90;14.48;;;;;;;10.89;89.44;95967.63;5055069;28;20045;-77
2022/10/21 06:03:57;;;;;;;20.92;15.25;;;;;;;10.95;88.93;95967.09;5055681;28;20047;-76
2022/10/21 06:06:24;;;;;;;19.80;14.30;;;;;;;10.98;88.98;95965.66;5055646;28;20515;-77
2022/10/21 06:08:50;;;;;;;21.80;14.40;;;;;;;11.03;88.83;95962.75;5054499;28;20067;-76
2022/10/21 06:11:19;;;;;;;27.35;17.85;;;;;;;11.00;89.46;95963.38;5043130;28;20044;-76
2022/10/21 06:13:47;;;;;;;21.38;15.38;;;;;;;11.06;89.15;95962.06;5047205;28;20511;-76
2022/10/21 06:16:15;;;;;;;26.15;17.20;;;;;;;11.10;89.16;95949.38;5041285;28;20056;-76
2022/10/21 06:18:43;;;;;;;30.85;20.15;;;;;;;11.14;89.07;95953.06;5059648;28;20049;-76
2022/10/21 06:21:10;;;;;;;33.10;17.50;;;;;;;11.07;88.98;95955.50;5059357;28;20060;-76
2022/10/21 06:23:37;;;;;;;24.60;15.32;;;;;;;11.05;89.24;95965.94;5058258;28;20048;-76
2022/10/21 06:26:05;;;;;;;21.25;14.10;;;;;;;11.02;89.48;95966.59;5058383;28;20048;-75
2022/10/21 06:28:34;;;;;;;20.88;13.93;;;;;;;11.04;89.18;95969.78;5057589;28;20045;-76
2022/10/21 06:31:01;;;;;;;19.00;13.65;;;;;;;11.10;89.27;95957.56;5059657;28;20063;-77
2022/10/21 06:33:31;;;;;;;23.83;14.95;;;;;;;11.20;88.54;95965.34;5058891;28;20128;-76
2022/10/21 06:36:00;;;;;;;25.90;13.48;;;;;;;11.25;88.93;95964.34;5039133;28;20041;-76
2022/10/21 06:38:28;;;;;;;22.48;14.75;;;;;;;11.26;89.02;95965.16;5051043;28;20041;-77
2022/10/21 06:41:01;;;;;;;21.52;14.32;;;;;;;11.27;88.88;95961.28;5051819;28;20041;-77
2022/10/21 06:43:27;;;;;;;;;;;;;;;11.38;88.71;95957.03;5058835;28;20037;-77
2022/10/21 06:46:02;;;;;;;21.95;13.82;;;;;;;11.43;88.60;95956.84;5048852;28;19921;-76
2022/10/21 06:48:32;;;;;;;23.98;14.00;;;;;;;11.47;88.82;95960.50;5055033;28;20036;-77
2022/10/21 06:51:00;;;;;;;23.77;13.65;;;;;;;11.50;88.68;95951.66;5059698;28;20052;-76
2022/10/21 06:53:27;;;;;;;21.98;14.23;;;;;;;11.47;88.67;95955.03;5058967;28;20124;-77
2022/10/21 06:56:00;;;;;;;23.20;14.70;;;;;;;11.55;87.65;95951.47;5059978;28;20488;-77
2022/10/21 06:58:29;;;;;;;20.55;13.98;;;;;;;11.58;87.76;95950.78;5059632;28;20045;-77
2022/10/21 07:01:00;;;;;;;20.63;13.80;;;;;;;11.64;87.65;95954.09;5060007;28;20045;-77
2022/10/21 07:03:27;;;;;;;25.10;14.27;;;;;;;11.68;87.23;95955.81;5059335;28;20123;-76
2022/10/21 07:06:01;;;;;;;21.98;14.13;;;;;;;11.64;86.92;95959.56;5058916;28;20506;-76
2022/10/21 07:08:31;;;;;;;21.13;12.85;;;;;;;11.59;86.77;95952.41;5058204;28;20037;-77
2022/10/21 07:10:58;;;;;;;21.17;13.27;;;;;;;11.55;86.84;95950.66;5058720;28;20041;-77
2022/10/21 07:13:25;;;;;;;18.88;13.57;;;;;;;11.50;87.12;95938.03;5055863;28;20044;-77
2022/10/21 07:15:58;;;;;;;19.77;13.23;;;;;;;11.61;87.28;95933.75;5057975;28;20511;-76
2022/10/21 07:18:25;;;;;;;19.17;13.15;;;;;;;11.68;87.20;95923.09;5058003;28;20496;-76
2022/10/21 07:20:52;;;;;;;20.35;13.73;;;;;;;11.66;87.21;95925.38;5057395;28;20143;-76
2022/10/21 07:23:20;;;;;;;22.05;14.05;;;;;;;11.67;87.02;95920.72;5057593;28;20049;-77
2022/10/21 07:25:47;;;;;;;20.88;15.30;;;;;;;11.69;87.39;95919.25;5056438;28;20583;-77
2022/10/21 07:28:14;;;;;;;19.05;13.30;;;;;;;11.77;87.51;95915.63;5055845;28;20415;-77
2022/10/21 07:30:41;;;;;;;19.73;12.93;;;;;;;11.85;87.57;95915.91;5058892;28;20407;-76
2022/10/21 07:33:08;;;;;;;18.15;13.50;;;;;;;11.75;87.53;95912.47;5056645;28;20658;-77
2022/10/21 07:35:34;;;;;;;22.10;13.20;;;;;;;11.70;87.57;95912.66;5058323;28;20057;-77
2022/10/21 07:38:01;;;;;;;20.30;14.15;;;;;;;11.69;87.67;95907.53;5057370;28;20044;-77
2022/10/21 07:40:30;;;;;;;20.40;13.35;;;;;;;11.63;87.71;95897.97;5052900;28;20047;-77
2022/10/21 07:42:57;;;;;;;25.25;14.20;;;;;;;11.66;87.63;95903.56;5053584;28;20044;-77
2022/10/21 07:45:24;;;;;;;22.13;14.15;;;;;;;11.66;87.92;95908.22;5053427;28;20055;-76
2022/10/21 07:47:50;;;;;;;22.95;14.30;;;;;;;11.76;88.28;95892.22;5053375;28;20049;-76
2022/10/21 07:50:17;;;;;;;22.60;15.18;;;;;;;11.76;88.05;95889.50;5053324;28;20044;-76
2022/10/21 07:52:45;;;;;;;21.02;14.18;;;;;;;11.73;87.55;95883.91;5054174;28;20045;-76
2022/10/21 07:55:12;;;;;;;19.02;13.32;;;;;;;11.79;87.39;95881.75;5053647;28;20059;-77
2022/10/21 07:57:40;;;;;;;20.90;13.80;;;;;;;11.77;87.26;95880.16;5053204;28;20053;-77
2022/10/21 08:00:07;;;;;;;21.70;13.15;;;;;;;11.80;86.69;95880.63;5052948;28;20063;-77
2022/10/21 08:02:34;;;;;;;19.38;12.88;;;;;;;11.91;85.97;95887.31;5054008;28;20522;-76
2022/10/21 08:05:01;;;;;;;19.23;13.38;;;;;;;11.87;86.46;95891.84;5057721;28;20041;-77
2022/10/21 08:07:28;;;;;;;18.38;12.55;;;;;;;11.95;86.21;95874.56;5055831;28;20048;-76
2022/10/21 08:09:56;;;;;;;16.98;11.77;;;;;;;12.04;86.25;95867.06;5055765;28;20048;-76
2022/10/21 08:12:23;;;;;;;16.95;13.13;;;;;;;12.07;85.79;95863.69;5055613;28;20043;-77
2022/10/21 08:14:51;;;;;;;17.92;12.90;;;;;;;12.12;85.87;95879.84;5056426;28;20069;-77
2022/10/21 08:17:17;;;;;;;20.90;12.60;;;;;;;12.22;85.93;95889.50;5056413;28;20052;-77
2022/10/21 08:19:46;;;;;;;21.50;13.07;;;;;;;12.32;85.54;95893.72;5057268;28;20043;-77
2022/10/21 08:22:12;;;;;;;18.08;12.50;;;;;;;12.44;85.54;95880.09;5058488;28;20045;-76
2022/10/21 08:24:39;;;;;;;17.20;12.20;;;;;;;12.47;85.26;95879.38;5059221;28;20063;-76
2022/10/21 08:27:06;;;;;;;20.00;12.73;;;;;;;12.41;84.67;95878.03;5054873;28;20064;-76
2022/10/21 08:29:32;;;;;;;16.90;12.73;;;;;;;12.48;83.83;95878.28;5054252;28;20045;-77
2022/10/21 08:32:04;;;;;;;17.45;12.20;;;;;;;12.52;83.57;95874.50;5054385;28;20072;-78
2022/10/21 08:34:30;;;;;;;16.67;11.85;;;;;;;12.51;83.19;95881.09;5052814;28;20041;-77
2022/10/21 08:36:57;;;;;;;19.13;12.05;;;;;;;12.56;83.11;95882.00;5052504;28;20040;-77
2022/10/21 08:39:24;;;;;;;23.55;15.18;;;;;;;12.64;82.69;95881.09;5053147;28;20056;-76
2022/10/21 08:42:04;;;;;;;19.90;11.10;;;;;;;12.66;82.75;95871.41;5054877;28;20053;-77
2022/10/21 08:44:40;;;;;;;17.05;12.18;;;;;;;12.76;82.41;95868.22;5055252;28;20044;-77
2022/10/21 08:47:14;;;;;;;19.23;11.55;;;;;;;12.87;82.08;95862.28;5054804;28;20041;-77
2022/10/21 08:49:53;;;;;;;18.13;10.73;;;;;;;12.94;81.45;95867.97;5036972;28;20110;-77
2022/10/21 08:52:25;;;;;;;15.80;11.63;;;;;;;12.97;80.83;95861.81;5053954;28;20045;-77
2022/10/21 08:54:56;;;;;;;15.77;10.68;;;;;;;13.04;81.13;95864.75;5034828;28;20562;-76
2022/10/21 08:57:23;;;;;;;20.55;10.95;;;;;;;13.09;80.94;95864.50;5043774;28;20041;-76
2022/10/21 08:59:50;;;;;;;15.27;11.57;;;;;;;13.18;80.43;95878.84;5055878;28;20052;-76
2022/10/21 09:02:43;;;;;;;14.85;10.45;;;;;;;13.20;80.24;95886.69;5054088;28;20052;-77
2022/10/21 09:05:29;;;;;;;14.32;10.63;;;;;;;13.34;80.49;95880.88;5053948;28;20049;-77
2022/10/21 09:08:06;;;;;;;15.43;10.95;;;;;;;13.33;80.11;95877.34;5055145;28;20055;-76
2022/10/21 09:10:46;;;;;;;15.38;10.15;;;;;;;13.32;80.04;95879.28;5054471;28;20052;-76
2022/10/21 09:13:20;;;;;;;15.65;10.55;;;;;;;13.45;79.67;95880.03;5035698;28;20102;-77
2022/10/21 09:15:59;;;;;;;15.68;10.50;;;;;;;13.43;79.53;95879.59;5054398;28;20049;-76
2022/10/21 09:18:38;;;;;;;14.32;10.18;;;;;;;13.38;79.66;95887.25;5053359;28;20052;-76
2022/10/21 09:21:13;;;;;;;14.00;10.00;;;;;;;13.33;79.22;95899.22;5053644;28;20053;-77
2022/10/21 09:23:58;;;;;;;19.88;10.70;;;;;;;13.32;79.63;95901.16;5052869;28;20049;-75
2022/10/21 09:26:35;;;;;;;13.95;10.18;;;;;;;13.37;79.45;95893.88;5035259;28;20099;-76
2022/10/21 09:29:18;;;;;;;14.52;9.80;;;;;;;13.41;79.87;95892.00;5035305;28;20431;-76
2022/10/21 09:31:45;;;;;;;16.70;10.63;;;;;;;13.39;79.40;95897.03;5053151;28;20131;-77
2022/10/21 09:34:21;;;;;;;15.32;10.40;;;;;;;13.42;79.38;95905.34;5053002;28;20314;-76
2022/10/21 09:36:48;;;;;;;15.02;9.68;;;;;;;13.53;79.58;95908.41;5053289;28;20045;-75
2022/10/21 09:39:19;;;;;;;13.13;10.13;;;;;;;13.56;80.00;95913.16;5053238;28;20053;-75
2022/10/21 09:41:51;;;;;;;15.45;10.60;;;;;;;13.59;80.17;95926.16;5054259;28;20045;-76
2022/10/21 09:44:21;;;;;;;13.40;9.77;;;;;;;13.64;79.78;95923.16;5053418;28;20041;-76
2022/10/21 09:46:49;;;;;;;15.25;10.07;;;;;;;13.69;79.58;95924.88;5037471;28;20084;-76
2022/10/21 09:49:25;;;;;;;13.82;10.02;;;;;;;13.73;79.90;95932.03;5058200;28;20059;-76
2022/10/21 09:51:52;;;;;;;16.60;10.55;;;;;;;13.70;79.68;95932.72;5059507;28;20047;-77
2022/10/21 09:54:23;;;;;;;12.70;9.95;;;;;;;13.72;79.73;95935.88;5056046;28;20045;-76
2022/10/21 09:56:55;;;;;;;15.98;10.60;;;;;;;13.76;79.59;95938.75;5055902;28;20059;-75
2022/10/21 09:59:24;;;;;;;15.80;10.85;;;;;;;13.76;78.75;95939.53;5055449;28;20063;-76
2022/10/21 10:01:51;;;;;;;16.58;10.77;;;;;;;13.78;78.86;95944.66;5057017;28;20102;-76
2022/10/21 10:04:25;;;;;;;17.05;10.60;;;;;;;13.79;78.08;95941.56;5056487;28;20041;-76
2022/10/21 10:06:52;;;;;;;15.40;10.02;;;;;;;13.82;77.84;95951.03;5055311;28;20064;-75
2022/10/21 10:09:26;;;;;;;12.27;9.68;;;;;;;13.84;77.99;95960.50;5056746;28;20040;-75
2022/10/21 10:11:56;;;;;;;14.70;9.25;;;;;;;13.86;78.15;95962.06;5040013;28;20199;-75
2022/10/21 10:14:31;;;;;;;17.40;9.95;;;;;;;13.89;78.69;95972.34;5058495;28;20090;-76
2022/10/21 10:16:58;;;;;;;12.52;9.95;;;;;;;13.89;78.20;95983.28;5058090;28;20049;-75
2022/10/21 10:19:28;;;;;;;17.58;10.60;;;;;;;13.83;78.68;95994.47;5057491;28;20041;-75
2022/10/21 10:22:09;;;;;;;16.20;11.20;;;;;;;13.63;80.76;96011.88;5058160;28;20051;-76
2022/10/21 10:24:36;;;;;;;17.85;11.88;;;;;;;13.30;82.84;96029.22;5056589;28;20053;-76
2022/10/21 10:27:04;;;;;;;19.45;12.00;;;;;;;13.15;84.66;96031.81;5039055;28;20049;-75
2022/10/21 10:29:33;;;;;;;17.70;11.52;;;;;;;13.25;85.41;96036.84;5057196;28;20155;-75
2022/10/21 10:32:01;;;;;;;18.92;12.38;;;;;;;13.37;84.08;96025.94;5058020;28;20403;-74
2022/10/21 10:34:33;;;;;;;16.73;11.00;;;;;;;13.62;83.69;96017.66;5058108;28;20043;-76
2022/10/21 10:37:04;;;;;;;19.53;11.73;;;;;;;13.58;83.50;96042.19;5059360;28;20080;-77
2022/10/21 10:39:35;;;;;;;16.45;10.98;;;;;;;13.77;83.00;96055.25;5060640;28;20040;-74
2022/10/21 10:42:03;;;;;;;15.70;10.43;;;;;;;13.82;83.12;96055.00;5053722;28;20499;-76
2022/10/21 10:44:34;;;;;;;15.23;10.90;;;;;;;13.80;82.98;96051.84;5058137;28;20123;-77
2022/10/21 10:47:02;;;;;;;19.80;11.35;;;;;;;13.43;83.17;96053.84;5061478;28;20045;-75
2022/10/21 10:49:38;;;;;;;18.23;11.10;;;;;;;13.52;83.38;96060.78;5058768;28;20514;-76
2022/10/21 10:52:20;;;;;;;21.65;12.85;;;;;;;13.37;84.65;96066.16;5059707;28;20037;-76
2022/10/21 10:54:47;;;;;;;19.08;12.57;;;;;;;13.32;85.04;96067.19;5058979;28;20048;-75
2022/10/21 10:57:17;;;;;;;20.13;12.48;;;;;;;12.99;85.95;96059.03;5057897;28;20044;-75
2022/10/21 10:59:46;;;;;;;17.15;12.68;;;;;;;13.08;86.25;96062.47;5058647;28;20063;-77
2022/10/21 11:02:22;;;;;;;20.50;12.25;;;;;;;12.98;86.33;96065.66;5057037;28;20053;-76
2022/10/21 11:05:03;;;;;;;17.83;11.85;;;;;;;13.22;85.47;96071.16;5056985;28;20127;-75
2022/10/21 11:07:33;;;;;;;18.17;11.90;;;;;;;13.24;85.17;96074.34;5057022;28;20045;-79
2022/10/21 11:10:04;;;;;;;17.33;12.10;;;;;;;13.36;83.96;96064.53;5048729;28;20385;-76
2022/10/21 11:12:32;;;;;;;18.30;12.10;;;;;;;13.21;84.10;96042.25;5037278;28;20037;-77
2022/10/21 11:14:59;;;;;;;20.40;12.32;;;;;;;13.26;84.79;96041.22;5055842;28;20040;-76
2022/10/21 11:17:33;;;;;;;20.52;12.13;;;;;;;13.41;84.52;96034.22;5057412;28;20052;-76
2022/10/21 11:20:11;;;;;;;18.83;12.15;;;;;;;13.41;83.98;96036.97;5039833;28;20053;-76
2022/10/21 11:22:45;;;;;;;20.80;12.45;;;;;;;13.45;83.85;96030.47;5056669;28;20105;-76
2022/10/21 11:25:22;;;;;;;18.92;11.20;;;;;;;13.56;83.33;96036.25;5038989;28;20041;-75
2022/10/21 11:28:00;;;;;;;21.48;10.95;;;;;;;13.63;82.61;96025.53;5038930;28;20053;-76